Time;durP1;ratioP1;P1;durP2;ratioP2;P2;SDS_P1;SDS_P2;PMS_P1;PMS_P2;Temp;Humidity;BMP_temperature;BMP_pressure;BME280_temperature;BME280_humidity;BME280_pressure;Samples;Min_cycle;Max_cycle;Signal;HPM_P1;HPM_P2
2022/12/06 00:01:19;;;;;;;13.48;9.15;;;6.10;60.80;;;;;;4982374;28;20057;-47
2022/12/06 00:03:51;;;;;;;11.60;8.48;;;6.10;60.70;;;;;;4983052;28;20518;-48
2022/12/06 00:06:21;;;;;;;13.70;8.77;;;6.20;60.90;;;;;;4979666;28;20077;-45
2022/12/06 00:08:49;;;;;;;14.60;9.30;;;6.10;60.70;;;;;;4983109;28;20053;-46
2022/12/06 00:11:19;;;;;;;17.00;10.65;;;6.10;60.60;;;;;;4972354;28;20065;-51
2022/12/06 00:13:48;;;;;;;14.85;9.18;;;6.10;60.60;;;;;;4979222;28;20054;-47
2022/12/06 00:16:17;;;;;;;15.65;9.77;;;6.20;60.70;;;;;;4984017;28;20050;-48
2022/12/06 00:18:47;;;;;;;19.95;12.07;;;6.10;60.70;;;;;;4983387;28;20057;-49
2022/12/06 00:21:16;;;;;;;17.02;10.48;;;6.20;60.80;;;;;;4977022;28;20050;-46
2022/12/06 00:23:46;;;;;;;16.13;10.27;;;6.20;60.70;;;;;;4985145;28;20057;-47
2022/12/06 00:26:14;;;;;;;17.60;10.38;;;6.10;60.60;;;;;;4978979;28;20074;-49
2022/12/06 00:28:41;;;;;;;16.88;10.63;;;6.10;60.50;;;;;;4984344;28;20073;-49
2022/12/06 00:31:13;;;;;;;15.35;10.07;;;6.20;60.60;;;;;;4974037;28;20058;-45
2022/12/06 00:33:40;;;;;;;13.15;9.15;;;6.20;60.50;;;;;;4982591;28;20054;-46
2022/12/06 00:36:11;;;;;;;14.50;9.02;;;6.20;60.60;;;;;;4986442;28;20058;-45
2022/12/06 00:38:38;;;;;;;13.40;9.38;;;6.10;60.40;;;;;;4982850;28;20050;-47
2022/12/06 00:41:07;;;;;;;15.50;9.85;;;6.20;60.50;;;;;;4972836;28;20081;-48
2022/12/06 00:43:35;;;;;;;17.20;9.55;;;6.20;60.50;;;;;;4981364;28;20051;-44
2022/12/06 00:46:04;;;;;;;15.43;9.07;;;6.20;60.50;;;;;;4983379;28;20065;-44
2022/12/06 00:48:33;;;;;;;11.30;8.48;;;6.20;60.50;;;;;;4981920;28;20051;-50
2022/12/06 00:51:00;;;;;;;12.68;8.55;;;6.20;60.40;;;;;;4979425;28;20065;-45
2022/12/06 00:53:28;;;;;;;11.98;8.48;;;6.20;60.40;;;;;;4983655;28;20053;-43
2022/12/06 00:55:55;;;;;;;14.35;9.50;;;6.20;60.40;;;;;;4981236;28;20057;-51
2022/12/06 00:58:24;;;;;;;13.82;9.10;;;6.20;60.40;;;;;;4984588;28;20046;-44
2022/12/06 01:00:51;;;;;;;14.57;9.30;;;6.20;60.40;;;;;;4979946;28;20490;-44
2022/12/06 01:03:19;;;;;;;18.30;10.48;;;6.20;60.50;;;;;;4982784;28;20050;-43
2022/12/06 01:05:49;;;;;;;16.40;9.13;;;6.20;60.50;;;;;;4977925;28;20057;-45
2022/12/06 01:08:18;;;;;;;17.05;9.75;;;6.20;60.50;;;;;;4982448;28;20051;-46
2022/12/06 01:10:54;;;;;;;16.85;9.85;;;6.20;60.50;;;;;;4978413;28;20065;-46
2022/12/06 01:13:21;;;;;;;16.00;9.70;;;6.20;60.50;;;;;;4985353;28;20054;-45
2022/12/06 01:15:48;;;;;;;15.07;8.85;;;6.20;60.50;;;;;;4985643;28;20054;-45
2022/12/06 01:18:16;;;;;;;18.13;9.77;;;6.20;60.50;;;;;;4981538;28;20067;-47
2022/12/06 01:20:43;;;;;;;16.42;9.43;;;6.20;60.50;;;;;;4977118;28;20058;-45
2022/12/06 01:23:11;;;;;;;15.07;10.05;;;6.10;60.50;;;;;;4978072;28;20498;-43
2022/12/06 01:25:39;;;;;;;16.15;9.98;;;6.20;60.50;;;;;;4979948;28;20046;-43
2022/12/06 01:28:06;;;;;;;18.35;10.20;;;6.20;60.60;;;;;;4983797;28;20050;-50
2022/12/06 01:30:33;;;;;;;15.75;10.23;;;6.20;60.60;;;;;;4979811;28;20057;-46
2022/12/06 01:33:00;;;;;;;16.13;9.60;;;6.20;60.70;;;;;;4981756;28;20047;-46
2022/12/06 01:35:28;;;;;;;16.38;10.20;;;6.10;60.70;;;;;;4982742;28;20534;-47
2022/12/06 01:37:55;;;;;;;15.00;9.32;;;6.20;60.70;;;;;;4982162;28;20061;-47
2022/12/06 01:40:23;;;;;;;15.93;10.32;;;6.10;60.70;;;;;;4976345;28;20046;-46
2022/12/06 01:42:51;;;;;;;17.00;10.68;;;6.20;60.80;;;;;;4982056;28;20058;-45
2022/12/06 01:45:18;;;;;;;14.85;9.60;;;6.10;60.70;;;;;;4972954;28;20074;-45
2022/12/06 01:47:45;;;;;;;15.85;10.07;;;6.10;60.70;;;;;;4983689;28;20391;-50
2022/12/06 01:50:19;;;;;;;18.40;9.65;;;6.20;60.80;;;;;;4972472;28;20525;-49
2022/12/06 01:52:52;;;;;;;14.70;8.73;;;6.10;60.80;;;;;;4981383;28;20521;-46
2022/12/06 01:55:20;;;;;;;17.30;9.13;;;6.20;60.80;;;;;;4980980;28;20057;-44
2022/12/06 01:57:52;;;;;;;14.18;8.90;;;6.10;61.50;;;;;;4983537;28;20062;-47
2022/12/06 02:00:20;;;;;;;12.60;8.85;;;6.10;60.80;;;;;;4981246;28;20058;-48
2022/12/06 02:02:47;;;;;;;14.23;8.70;;;6.20;60.80;;;;;;4980469;28;20069;-48
2022/12/06 02:05:16;;;;;;;16.80;8.90;;;6.20;60.80;;;;;;4976107;28;20062;-49
2022/12/06 02:07:45;;;;;;;15.57;9.25;;;6.20;60.80;;;;;;4979843;28;20053;-48
2022/12/06 02:10:13;;;;;;;14.80;8.82;;;6.20;60.80;;;;;;4975883;28;20123;-45
2022/12/06 02:12:40;;;;;;;15.98;8.65;;;6.20;60.80;;;;;;4980665;28;20058;-43
2022/12/06 02:15:10;;;;;;;12.93;8.23;;;6.20;60.80;;;;;;4983193;28;20517;-44
2022/12/06 02:17:44;;;;;;;17.63;9.60;;;6.20;60.90;;;;;;4979974;28;20363;-44
2022/12/06 02:20:22;;;;;;;17.20;9.18;;;6.20;60.90;;;;;;4972513;28;20058;-47
2022/12/06 02:23:24;;;;;;;12.27;7.63;;;6.20;60.80;;;;;;4982258;28;20097;-46
2022/12/06 02:26:13;;;;;;;13.18;8.02;;;6.20;60.90;;;;;;4981448;28;20117;-48
2022/12/06 02:29:24;;;;;;;11.95;7.60;;;6.20;60.90;;;;;;4979298;28;20059;-47
2022/12/06 02:31:57;;;;;;;12.77;7.05;;;6.20;60.90;;;;;;4978497;28;20058;-48
2022/12/06 02:34:31;;;;;;;17.52;7.78;;;6.20;60.80;;;;;;4976062;28;20414;-47
2022/12/06 02:37:03;;;;;;;11.00;6.75;;;6.30;60.90;;;;;;4977905;28;20418;-45
2022/12/06 02:39:35;;;;;;;13.68;7.35;;;6.30;60.90;;;;;;4973009;28;20483;-48
2022/12/06 02:42:05;;;;;;;12.55;6.93;;;6.30;60.90;;;;;;4975319;28;20058;-47
2022/12/06 02:44:36;;;;;;;14.43;8.32;;;6.20;60.90;;;;;;4979303;28;20061;-46
2022/12/06 02:47:08;;;;;;;12.02;7.20;;;6.20;60.90;;;;;;4980458;28;20061;-52
2022/12/06 02:49:43;;;;;;;10.82;6.50;;;6.20;60.90;;;;;;4980700;28;20054;-46
2022/12/06 02:52:11;;;;;;;13.57;7.30;;;6.20;60.90;;;;;;4975444;28;20058;-49
2022/12/06 02:54:39;;;;;;;14.23;7.60;;;6.30;61.00;;;;;;4980616;28;20053;-44
2022/12/06 02:57:06;;;;;;;13.82;7.10;;;6.30;61.20;;;;;;4982049;28;20065;-45
2022/12/06 02:59:33;;;;;;;9.82;5.70;;;6.30;61.10;;;;;;4982474;28;20122;-45
2022/12/06 03:02:04;;;;;;;17.60;7.88;;;6.30;61.20;;;;;;4977118;28;20058;-45
2022/12/06 03:04:52;;;;;;;12.75;7.05;;;6.30;61.20;;;;;;4981020;28;20065;-51
2022/12/06 03:07:34;;;;;;;11.85;7.10;;;6.20;61.20;;;;;;4981229;28;20141;-47
2022/12/06 03:10:26;;;;;;;12.23;6.97;;;6.30;61.30;;;;;;4980921;28;20059;-48
2022/12/06 03:13:01;;;;;;;13.18;7.15;;;6.20;61.30;;;;;;4981002;28;20077;-47
2022/12/06 03:15:37;;;;;;;13.75;6.97;;;6.30;61.30;;;;;;4980210;28;20050;-49
2022/12/06 03:18:16;;;;;;;12.25;7.78;;;6.30;61.40;;;;;;4980533;28;20050;-46
2022/12/06 03:20:49;;;;;;;13.23;7.18;;;6.20;61.30;;;;;;4973454;28;20059;-46
2022/12/06 03:23:22;;;;;;;11.85;7.10;;;6.30;61.40;;;;;;4981339;28;20058;-47
2022/12/06 03:25:51;;;;;;;12.70;7.63;;;6.30;61.50;;;;;;4980268;28;20054;-48
2022/12/06 03:28:21;;;;;;;15.20;7.05;;;6.30;61.50;;;;;;4980453;28;20054;-48
2022/12/06 03:30:52;;;;;;;15.68;6.00;;;6.30;61.60;;;;;;4976588;28;20051;-46
2022/12/06 03:33:23;;;;;;;15.27;6.53;;;6.30;61.60;;;;;;4975342;28;20057;-45
2022/12/06 03:35:53;;;;;;;34.60;6.57;;;6.30;61.70;;;;;;4982950;28;20073;-44
2022/12/06 03:38:27;;;;;;;14.43;6.28;;;6.30;61.70;;;;;;4981907;28;20069;-47
2022/12/06 03:40:57;;;;;;;20.25;6.40;;;6.30;61.80;;;;;;4975945;28;20054;-47
2022/12/06 03:43:24;;;;;;;20.20;6.53;;;6.30;61.80;;;;;;4973699;28;20054;-43
2022/12/06 03:45:59;;;;;;;31.00;6.78;;;6.30;61.80;;;;;;4979497;28;20061;-45
2022/12/06 03:48:30;;;;;;;31.63;7.00;;;6.30;61.80;;;;;;4979203;28;20404;-49
2022/12/06 03:51:03;;;;;;;16.55;6.53;;;6.30;61.90;;;;;;4977496;28;20061;-48
2022/12/06 03:53:31;;;;;;;39.28;6.90;;;6.30;61.90;;;;;;4959938;28;20444;-45
2022/12/06 03:55:58;;;;;;;53.38;7.65;;;6.30;62.00;;;;;;4963397;28;20054;-54
2022/12/06 03:58:25;;;;;;;17.45;6.18;;;6.30;62.10;;;;;;4977974;28;20054;-51
2022/12/06 04:00:53;;;;;;;28.33;6.97;;;6.30;62.20;;;;;;4975000;28;20554;-57
2022/12/06 04:03:20;;;;;;;19.52;6.95;;;6.30;62.20;;;;;;4977313;28;20066;-57
2022/12/06 04:05:47;;;;;;;87.60;7.85;;;6.30;62.30;;;;;;4975520;28;20054;-57
2022/12/06 04:08:16;;;;;;;123.13;8.80;;;6.30;62.40;;;;;;4976745;28;20057;-57
2022/12/06 04:10:43;;;;;;;128.48;8.60;;;6.30;62.40;;;;;;4973770;28;20059;-57
2022/12/06 04:13:10;;;;;;;94.13;8.00;;;6.30;62.40;;;;;;4976499;28;20055;-57
2022/12/06 04:15:39;;;;;;;182.05;10.18;;;6.30;62.50;;;;;;4968887;28;20050;-57
2022/12/06 04:18:10;;;;;;;169.68;9.27;;;6.30;62.50;;;;;;4983097;28;20058;-53
2022/12/06 04:23:27;;;;;;;139.07;8.73;;;6.30;62.60;;;;;;4987038;28;20054;-53
2022/12/06 04:25:55;;;;;;;62.83;6.95;;;6.40;62.70;;;;;;4984583;28;20050;-56
2022/12/06 04:39:24;;;;;;;163.68;9.25;;;6.40;62.70;;;;;;4986168;28;20065;-56
2022/12/06 04:44:36;;;;;;;104.53;7.57;;;6.40;62.80;;;;;;4989457;28;20069;-57
2022/12/06 04:47:04;;;;;;;124.40;9.40;;;6.40;62.80;;;;;;4983151;28;20050;-51
2022/12/06 04:49:31;;;;;;;251.68;10.60;;;6.40;62.90;;;;;;4976939;28;20055;-57
2022/12/06 04:51:58;;;;;;;178.00;10.77;;;6.40;63.00;;;;;;4979620;28;20403;-57
2022/12/06 04:54:28;;;;;;;152.70;8.27;;;6.40;63.00;;;;;;4981048;28;20070;-53
2022/12/06 04:56:56;;;;;;;275.17;11.05;;;6.40;63.00;;;;;;4985762;28;20061;-51
2022/12/06 04:59:23;;;;;;;126.35;7.90;;;6.50;63.10;;;;;;4980657;28;20508;-57
2022/12/06 05:01:50;;;;;;;60.22;6.93;;;6.40;63.10;;;;;;4976921;28;20422;-56
2022/12/06 05:04:18;;;;;;;16.70;5.60;;;6.50;63.20;;;;;;4997696;28;20054;-57
2022/12/06 05:06:45;;;;;;;10.90;5.32;;;6.40;63.20;;;;;;4984841;28;20055;-56
2022/12/06 05:09:13;;;;;;;24.60;5.70;;;6.50;63.30;;;;;;4987498;28;20058;-57
2022/12/06 05:11:41;;;;;;;9.45;6.35;;;6.50;63.30;;;;;;4983257;28;20058;-56
2022/12/06 05:14:09;;;;;;;51.38;6.57;;;6.50;63.40;;;;;;4986785;28;20409;-54
2022/12/06 05:16:36;;;;;;;110.10;7.72;;;6.50;63.30;;;;;;4992979;28;20078;-57
2022/12/06 05:19:03;;;;;;;148.82;10.02;;;6.50;63.50;;;;;;4987295;28;20414;-57
2022/12/06 05:21:31;;;;;;;307.85;15.02;;;6.50;63.40;;;;;;4999456;28;20077;-57
2022/12/06 05:23:58;;;;;;;68.07;7.53;;;6.60;63.50;;;;;;4997739;28;20054;-57
2022/12/06 05:26:27;;;;;;;170.82;9.60;;;6.50;63.40;;;;;;5003771;28;20045;-57
2022/12/06 05:28:57;;;;;;;95.38;9.45;;;6.50;63.40;;;;;;4998818;28;20050;-57
2022/12/06 05:31:25;;;;;;;230.68;12.25;;;6.50;63.50;;;;;;4999173;28;20096;-57
2022/12/06 05:33:52;;;;;;;11.10;6.30;;;6.50;63.50;;;;;;4997591;28;20049;-54
2022/12/06 05:36:21;;;;;;;71.55;8.45;;;6.60;63.60;;;;;;5003230;28;20046;-57
2022/12/06 05:38:49;;;;;;;202.25;10.93;;;6.60;63.80;;;;;;5001898;28;20058;-50
2022/12/06 05:41:16;;;;;;;189.23;11.35;;;6.60;63.80;;;;;;4995623;28;20061;-57
2022/12/06 05:43:44;;;;;;;210.93;11.80;;;6.60;63.90;;;;;;5000027;28;20058;-57
2022/12/06 05:46:12;;;;;;;46.95;8.18;;;6.60;63.90;;;;;;4997293;28;20061;-56
2022/12/06 05:48:39;;;;;;;117.32;10.52;;;6.60;64.00;;;;;;5002417;28;20418;-57
2022/12/06 05:51:07;;;;;;;70.47;8.55;;;6.60;63.90;;;;;;5001476;28;20062;-57
2022/12/06 05:53:34;;;;;;;411.20;18.20;;;6.60;63.90;;;;;;4992496;28;20054;-57
2022/12/06 05:56:06;;;;;;;393.27;16.25;;;6.60;63.90;;;;;;4994898;28;20050;-53
2022/12/06 05:58:33;;;;;;;223.05;13.60;;;6.60;64.00;;;;;;4992578;28;20050;-57
2022/12/06 06:01:00;;;;;;;551.13;22.48;;;6.60;64.00;;;;;;4997457;28;20057;-58
2022/12/06 06:03:29;;;;;;;245.88;11.82;;;6.60;64.10;;;;;;4999616;28;20061;-54
2022/12/06 06:05:59;;;;;;;390.38;14.48;;;6.60;64.10;;;;;;5002054;28;20054;-57
2022/12/06 06:08:26;;;;;;;310.88;14.57;;;6.60;64.10;;;;;;4997300;28;20061;-53
2022/12/06 06:10:53;;;;;;;291.15;12.88;;;6.70;64.20;;;;;;4995129;28;20061;-54
2022/12/06 06:13:21;;;;;;;112.63;10.77;;;6.70;64.30;;;;;;5000039;28;20058;-57
2022/12/06 06:15:49;;;;;;;156.43;9.57;;;6.70;64.30;;;;;;5001657;28;20061;-57
2022/12/06 06:18:16;;;;;;;209.70;11.15;;;6.70;64.30;;;;;;5001404;28;20449;-58
2022/12/06 06:20:50;;;;;;;73.63;9.25;;;6.70;64.40;;;;;;4976915;28;20058;-57
2022/12/06 06:23:18;;;;;;;216.75;13.05;;;6.70;64.40;;;;;;4992586;28;20791;-57
2022/12/06 06:25:45;;;;;;;208.10;12.80;;;6.70;64.30;;;;;;5001519;28;20050;-54
2022/12/06 06:28:13;;;;;;;210.57;11.75;;;6.70;64.30;;;;;;4992459;28;20061;-56
2022/12/06 06:30:41;;;;;;;118.05;9.32;;;6.70;64.40;;;;;;4990647;28;20072;-56
2022/12/06 06:33:08;;;;;;;85.65;9.75;;;6.70;65.00;;;;;;4999748;28;20057;-57
2022/12/06 06:35:36;;;;;;;111.88;9.07;;;6.70;64.30;;;;;;5002729;28;20057;-54
2022/12/06 06:38:05;;;;;;;54.78;10.43;;;6.80;64.50;;;;;;4999069;28;20054;-57
2022/12/06 06:40:32;;;;;;;70.55;9.48;;;6.70;64.50;;;;;;4996832;28;20495;-57
2022/12/06 06:43:16;;;;;;;429.92;19.65;;;6.80;64.50;;;;;;5003445;28;20064;-57
2022/12/06 06:45:45;;;;;;;262.95;14.85;;;6.80;64.60;;;;;;5002269;28;20394;-57
2022/12/06 06:48:13;;;;;;;95.35;10.70;;;6.80;64.50;;;;;;5000954;28;20425;-57
2022/12/06 06:50:40;;;;;;;118.40;11.38;;;6.80;64.50;;;;;;4991565;28;20049;-52
2022/12/06 07:02:54;;;;;;;310.58;18.73;;;6.80;64.80;;;;;;4893676;28;20060;-58
2022/12/06 07:05:21;;;;;;;422.70;21.15;;;6.80;64.80;;;;;;4994080;28;20061;-57
2022/12/06 07:07:48;;;;;;;226.40;16.10;;;6.80;65.00;;;;;;4999808;28;20560;-56
2022/12/06 07:10:19;;;;;;;22.27;10.23;;;6.80;65.00;;;;;;4996929;28;20869;-56
2022/12/06 07:12:47;;;;;;;26.38;9.88;;;6.80;65.10;;;;;;4997338;28;20056;-57
2022/12/06 07:15:15;;;;;;;26.73;10.40;;;6.70;65.20;;;;;;5000860;28;20065;-55
2022/12/06 07:17:43;;;;;;;151.02;12.90;;;6.80;65.30;;;;;;5001640;28;20058;-57
2022/12/06 07:20:11;;;;;;;17.23;10.57;;;6.80;65.50;;;;;;4990214;28;20482;-57
2022/12/06 07:22:39;;;;;;;75.75;12.98;;;6.80;65.50;;;;;;4991472;28;20058;-57
2022/12/06 07:25:07;;;;;;;71.47;12.30;;;6.80;65.50;;;;;;5000232;28;20057;-57
2022/12/06 07:27:36;;;;;;;150.70;14.05;;;6.80;65.50;;;;;;4996893;28;20054;-57
2022/12/06 07:30:05;;;;;;;64.35;12.00;;;6.80;66.30;;;;;;4983393;28;20065;-57
2022/12/06 07:32:34;;;;;;;186.70;16.48;;;6.80;65.60;;;;;;4979253;28;20507;-57
2022/12/06 07:35:03;;;;;;;167.65;13.98;;;6.80;65.60;;;;;;4995574;28;20430;-55
2022/12/06 07:37:32;;;;;;;134.95;14.25;;;6.80;65.50;;;;;;4992918;28;20052;-54
2022/12/06 07:40:01;;;;;;;107.25;13.50;;;6.80;65.40;;;;;;4991075;28;20050;-57
2022/12/06 07:45:16;;;;;;;149.65;14.10;;;6.90;65.40;;;;;;5005603;28;20065;-56
2022/12/06 07:47:45;;;;;;;99.85;12.18;;;6.90;65.40;;;;;;4995176;28;20486;-57
2022/12/06 07:50:15;;;;;;;14.38;9.63;;;6.90;65.30;;;;;;5001124;28;20064;-54
2022/12/06 07:52:43;;;;;;;39.80;10.00;;;6.90;65.40;;;;;;4998129;28;20058;-57
2022/12/06 07:55:11;;;;;;;129.02;12.40;;;6.90;65.50;;;;;;5000445;28;20479;-57
2022/12/06 07:57:39;;;;;;;271.30;15.27;;;6.90;65.50;;;;;;5001888;28;20058;-57
2022/12/06 08:00:10;;;;;;;74.32;10.50;;;6.90;65.50;;;;;;5002838;28;20133;-57
2022/12/06 08:02:39;;;;;;;75.50;9.43;;;7.00;65.60;;;;;;4997093;28;20050;-51
2022/12/06 08:05:07;;;;;;;233.98;13.80;;;6.90;65.50;;;;;;5000043;28;20053;-57
2022/12/06 08:07:34;;;;;;;189.27;13.18;;;7.00;65.50;;;;;;4996376;28;20048;-57
2022/12/06 08:10:01;;;;;;;51.83;9.50;;;7.00;65.50;;;;;;4998280;28;20065;-58
2022/12/06 08:12:30;;;;;;;23.52;8.40;;;7.00;65.40;;;;;;4999728;28;20058;-54
2022/12/06 08:14:58;;;;;;;159.15;11.00;;;7.00;65.50;;;;;;5005129;28;20054;-57
2022/12/06 08:17:25;;;;;;;52.80;9.98;;;7.00;65.50;;;;;;5005848;28;20065;-57
2022/12/06 08:19:54;;;;;;;93.60;10.10;;;7.00;65.60;;;;;;5006198;28;20058;-57
2022/12/06 08:22:21;;;;;;;55.67;9.60;;;7.10;65.70;;;;;;4992235;28;20050;-55
2022/12/06 08:24:48;;;;;;;99.05;10.13;;;7.10;65.70;;;;;;4996040;28;20054;-55
2022/12/06 08:27:15;;;;;;;482.05;20.40;;;7.10;65.70;;;;;;5002932;28;20061;-57
2022/12/06 08:29:44;;;;;;;131.85;11.25;;;7.10;65.70;;;;;;5005923;28;20054;-57
2022/12/06 08:32:11;;;;;;;34.25;8.68;;;7.10;65.70;;;;;;5001032;28;20058;-57
2022/12/06 08:34:39;;;;;;;140.73;13.23;;;7.10;65.60;;;;;;5005931;28;20066;-58
2022/12/06 08:37:07;;;;;;;207.95;11.85;;;7.10;65.60;;;;;;4996640;28;20066;-57
2022/12/06 08:39:35;;;;;;;83.60;11.27;;;7.10;65.70;;;;;;4991380;28;20049;-57
2022/12/06 08:42:05;;;;;;;392.50;18.00;;;7.10;65.70;;;;;;4986346;28;20593;-57
2022/12/06 08:44:32;;;;;;;32.55;10.07;;;7.10;65.70;;;;;;4993102;28;20064;-57
2022/12/06 08:47:01;;;;;;;358.63;16.92;;;7.10;65.70;;;;;;4995375;28;20066;-54
2022/12/06 08:49:29;;;;;;;153.35;13.00;;;7.10;65.70;;;;;;4991545;28;20050;-57
2022/12/06 08:52:00;;;;;;;179.65;13.70;;;7.10;65.70;;;;;;4991869;28;20877;-57
2022/12/06 08:54:30;;;;;;;203.48;13.95;;;7.10;65.80;;;;;;5000374;28;20505;-54
2022/12/06 08:56:58;;;;;;;25.88;10.27;;;7.10;65.90;;;;;;5000063;28;20387;-57
2022/12/06 08:59:25;;;;;;;201.45;15.30;;;7.10;65.80;;;;;;4993615;28;20058;-57
2022/12/06 09:01:53;;;;;;;156.55;12.98;;;7.10;65.90;;;;;;4988813;28;20066;-54
2022/12/06 09:04:21;;;;;;;16.83;9.52;;;7.20;66.00;;;;;;4995722;28;20054;-57
2022/12/06 09:06:49;;;;;;;215.18;15.85;;;7.20;66.00;;;;;;4990857;28;20050;-57
2022/12/06 09:09:18;;;;;;;101.88;13.23;;;7.10;66.00;;;;;;4997442;28;20072;-57
2022/12/06 09:11:48;;;;;;;114.07;12.80;;;7.20;66.20;;;;;;4996827;28;20056;-57
2022/12/06 09:14:17;;;;;;;211.88;14.90;;;7.20;66.30;;;;;;5002112;28;20682;-57
2022/12/06 09:16:45;;;;;;;289.60;16.98;;;7.20;66.30;;;;;;4995059;28;20042;-52
2022/12/06 09:19:13;;;;;;;21.98;11.75;;;7.20;66.30;;;;;;5001916;28;20076;-57
2022/12/06 09:21:42;;;;;;;158.18;13.85;;;7.20;66.30;;;;;;4995125;28;20065;-57
2022/12/06 09:24:12;;;;;;;220.80;17.30;;;7.20;66.30;;;;;;4990624;28;20061;-56
2022/12/06 09:26:40;;;;;;;344.02;19.00;;;7.20;66.40;;;;;;4992423;28;20046;-57
2022/12/06 09:29:09;;;;;;;149.82;14.82;;;7.20;66.40;;;;;;5002640;28;20058;-57
2022/12/06 09:31:38;;;;;;;229.85;17.75;;;7.20;66.50;;;;;;4994764;28;20478;-56
2022/12/06 09:34:06;;;;;;;72.03;12.75;;;7.20;66.50;;;;;;5000772;28;20080;-56
2022/12/06 09:36:34;;;;;;;167.07;16.90;;;7.30;66.70;;;;;;4999330;28;20050;-54
2022/12/06 09:39:05;;;;;;;237.13;15.98;;;7.30;66.70;;;;;;4996519;28;20066;-57
2022/12/06 09:41:55;;;;;;;179.57;15.32;;;7.30;66.80;;;;;;4989540;28;20604;-57
2022/12/06 09:44:40;;;;;;;42.92;12.00;;;7.30;66.90;;;;;;4990973;28;20514;-57
2022/12/06 09:47:17;;;;;;;263.20;18.50;;;7.30;66.90;;;;;;4998594;28;20494;-57
2022/12/06 09:49:55;;;;;;;231.82;17.17;;;7.30;66.80;;;;;;5002250;28;20513;-57
2022/12/06 09:52:51;;;;;;;86.47;15.02;;;7.30;66.80;;;;;;4985115;28;20497;-51
2022/12/06 09:55:30;;;;;;;165.75;15.65;;;7.40;66.90;;;;;;5003929;28;20065;-58
2022/12/06 09:58:06;;;;;;;46.20;12.63;;;7.40;66.80;;;;;;4996344;28;20050;-57
2022/12/06 10:00:42;;;;;;;36.92;11.77;;;7.40;66.80;;;;;;4993934;28;20062;-58
2022/12/06 10:03:28;;;;;;;113.32;13.93;;;7.40;66.90;;;;;;4995030;28;20050;-57
2022/12/06 10:06:01;;;;;;;203.68;16.63;;;7.40;66.90;;;;;;5001223;28;20062;-56
2022/12/06 10:08:56;;;;;;;18.70;12.17;;;7.40;66.80;;;;;;4998228;28;20058;-57
2022/12/06 10:11:40;;;;;;;54.00;13.13;;;7.50;66.90;;;;;;4988851;28;20058;-57
2022/12/06 10:14:19;;;;;;;54.50;13.05;;;7.40;66.70;;;;;;4991026;28;20493;-57
2022/12/06 10:17:02;;;;;;;26.73;12.73;;;7.50;66.70;;;;;;4993258;28;20049;-52
2022/12/06 10:19:42;;;;;;;64.15;13.05;;;7.50;66.70;;;;;;5001410;28;20050;-57
2022/12/06 10:22:16;;;;;;;36.88;12.60;;;7.50;66.70;;;;;;4989478;28;20054;-56
2022/12/06 10:24:55;;;;;;;24.58;11.93;;;7.50;66.70;;;;;;4999936;28;20057;-57
2022/12/06 10:27:28;;;;;;;44.97;13.48;;;7.50;66.70;;;;;;4995941;28;20050;-57
2022/12/06 10:29:57;;;;;;;47.95;14.48;;;7.50;66.70;;;;;;4997975;28;20049;-57
2022/12/06 10:32:53;;;;;;;79.78;15.10;;;7.50;66.70;;;;;;4986797;28;20041;-56
2022/12/06 10:35:37;;;;;;;33.83;13.52;;;7.50;66.90;;;;;;4995622;28;20058;-57
2022/12/06 10:38:11;;;;;;;;;;;7.60;66.80;;;;;;4979881;28;20454;-57
2022/12/06 10:40:47;;;;;;;77.43;15.13;;;7.60;66.90;;;;;;4997301;28;20362;-58
2022/12/06 10:43:18;;;;;;;106.78;15.10;;;7.60;66.60;;;;;;5000458;28;20061;-57
2022/12/06 10:48:44;;;;;;;100.45;16.08;;;7.70;66.60;;;;;;4985772;28;20501;-56
2022/12/06 10:51:15;;;;;;;281.15;20.90;;;7.70;66.60;;;;;;4988904;28;20065;-56
2022/12/06 10:53:46;;;;;;;124.53;16.17;;;7.70;66.60;;;;;;5001430;28;20054;-57
2022/12/06 10:56:18;;;;;;;226.35;17.80;;;7.70;66.60;;;;;;5003519;28;20058;-56
2022/12/06 10:58:51;;;;;;;28.45;14.63;;;7.70;66.60;;;;;;4993494;28;20178;-56
2022/12/06 11:01:22;;;;;;;128.85;16.33;;;7.70;66.60;;;;;;4987576;28;20073;-57
2022/12/06 11:03:59;;;;;;;110.63;17.60;;;7.70;66.60;;;;;;4990219;28;20091;-57
2022/12/06 11:06:31;;;;;;;66.72;15.10;;;7.70;66.60;;;;;;4997252;28;20045;-55
2022/12/06 11:09:07;;;;;;;40.60;15.75;;;7.70;66.60;;;;;;4995616;28;20394;-53
2022/12/06 11:11:36;;;;;;;41.58;15.25;;;7.80;66.70;;;;;;4990809;28;20054;-57
2022/12/06 11:14:11;;;;;;;33.15;15.45;;;7.80;66.90;;;;;;4998836;28;20414;-56
2022/12/06 11:16:41;;;;;;;32.63;15.40;;;7.80;66.90;;;;;;4997255;28;20054;-54
2022/12/06 11:19:21;;;;;;;28.52;14.57;;;7.80;66.90;;;;;;4999900;28;20065;-56
2022/12/06 11:21:53;;;;;;;26.05;14.38;;;7.90;67.00;;;;;;4996487;28;20054;-52
2022/12/06 11:24:26;;;;;;;31.85;16.02;;;7.90;66.90;;;;;;4999876;28;20076;-57
2022/12/06 11:27:01;;;;;;;32.72;14.05;;;7.90;66.90;;;;;;4991881;28;20058;-57
2022/12/06 11:29:29;;;;;;;27.27;14.60;;;7.90;66.90;;;;;;4999330;28;20046;-56
2022/12/06 11:31:59;;;;;;;31.77;16.17;;;8.00;66.80;;;;;;4995940;28;20072;-55
2022/12/06 11:34:32;;;;;;;33.08;17.25;;;8.00;66.80;;;;;;4997621;28;20069;-56
2022/12/06 11:37:02;;;;;;;30.48;16.00;;;8.00;66.60;;;;;;4998562;28;20068;-56
2022/12/06 11:39:31;;;;;;;37.60;15.38;;;8.00;66.50;;;;;;4996923;28;20053;-56
2022/12/06 11:42:01;;;;;;;30.98;15.50;;;8.10;66.60;;;;;;4989128;28;20525;-56
2022/12/06 11:44:35;;;;;;;28.83;14.57;;;8.10;66.50;;;;;;4991310;28;20080;-56
2022/12/06 11:47:03;;;;;;;27.30;13.70;;;8.10;66.40;;;;;;4999947;28;20508;-55
2022/12/06 11:49:34;;;;;;;25.58;14.02;;;8.10;66.30;;;;;;4991916;28;20054;-57
2022/12/06 11:52:07;;;;;;;29.00;13.38;;;8.10;66.20;;;;;;4997003;28;20511;-57
2022/12/06 11:54:39;;;;;;;29.57;14.10;;;8.10;66.20;;;;;;5000895;28;20050;-52
2022/12/06 11:57:17;;;;;;;28.45;14.40;;;8.10;66.10;;;;;;5002381;28;20057;-57
2022/12/06 12:00:10;;;;;;;29.40;15.52;;;8.10;65.90;;;;;;4997030;28;20057;-56
2022/12/06 12:02:38;;;;;;;25.00;14.60;;;8.20;65.90;;;;;;4992396;28;20058;-57
2022/12/06 12:05:19;;;;;;;21.95;12.52;;;8.10;65.80;;;;;;4992295;28;20046;-56
2022/12/06 12:07:50;;;;;;;22.02;12.05;;;8.10;66.00;;;;;;4999194;28;20065;-53
2022/12/06 12:10:31;;;;;;;26.77;13.57;;;8.10;65.90;;;;;;4996896;28;20057;-56
2022/12/06 12:16:03;;;;;;;25.45;12.75;;;8.10;66.00;;;;;;5007633;28;20065;-57
2022/12/06 12:18:34;;;;;;;27.55;13.93;;;8.10;66.00;;;;;;5000627;28;20054;-56
2022/12/06 12:21:05;;;;;;;26.08;14.73;;;8.10;66.00;;;;;;4998006;28;20042;-56
2022/12/06 12:23:34;;;;;;;23.05;12.75;;;8.20;66.00;;;;;;4999736;28;20062;-55
2022/12/06 12:26:04;;;;;;;22.50;12.88;;;8.10;65.90;;;;;;5000302;28;20077;-55
2022/12/06 12:28:32;;;;;;;22.30;11.95;;;8.20;66.00;;;;;;5003766;28;20077;-57
2022/12/06 12:31:08;;;;;;;21.58;12.68;;;8.20;65.90;;;;;;4994999;28;20085;-56
2022/12/06 12:33:35;;;;;;;21.00;12.27;;;8.20;65.80;;;;;;5005120;28;20506;-57
2022/12/06 12:36:26;;;;;;;23.77;13.32;;;8.20;65.80;;;;;;5004205;28;20530;-56
2022/12/06 12:38:56;;;;;;;24.27;13.02;;;8.20;65.80;;;;;;4999408;28;20057;-57
2022/12/06 12:41:28;;;;;;;21.83;13.50;;;8.20;65.60;;;;;;4995851;28;20058;-56
2022/12/06 12:44:02;;;;;;;25.08;13.93;;;8.20;65.60;;;;;;5005367;28;20504;-56
2022/12/06 12:46:30;;;;;;;24.45;14.07;;;8.20;65.50;;;;;;5005778;28;20060;-57
2022/12/06 12:49:23;;;;;;;30.38;16.65;;;8.20;65.60;;;;;;5004471;28;20050;-57
2022/12/06 12:51:52;;;;;;;25.70;15.52;;;8.20;65.50;;;;;;4991681;28;20054;-56
2022/12/06 12:54:23;;;;;;;33.88;17.75;;;8.20;65.60;;;;;;5003805;28;20057;-54
2022/12/06 12:56:50;;;;;;;34.97;19.27;;;8.20;65.50;;;;;;5004762;28;20054;-56
2022/12/06 12:59:20;;;;;;;33.22;18.33;;;8.20;65.60;;;;;;5004308;28;20061;-57
2022/12/06 13:01:51;;;;;;;30.60;17.40;;;8.10;65.70;;;;;;4988216;28;20058;-57
2022/12/06 13:04:32;;;;;;;33.55;18.08;;;8.10;65.70;;;;;;5003745;28;20062;-57
2022/12/06 13:07:03;;;;;;;31.08;16.95;;;8.10;65.80;;;;;;4994873;28;20058;-56
2022/12/06 13:09:43;;;;;;;32.60;18.70;;;8.10;65.90;;;;;;4990184;28;20061;-57
2022/12/06 13:12:16;;;;;;;32.67;17.30;;;8.10;66.10;;;;;;4986569;28;20076;-57
2022/12/06 13:14:51;;;;;;;28.20;16.57;;;8.10;66.10;;;;;;5004538;28;20065;-57
2022/12/06 13:17:20;;;;;;;25.15;15.27;;;8.10;66.20;;;;;;4989862;28;20728;-53
2022/12/06 13:19:48;;;;;;;26.27;15.43;;;8.10;66.20;;;;;;4997356;28;20060;-55
2022/12/06 13:22:22;;;;;;;38.17;20.33;;;8.10;66.30;;;;;;4995840;28;20061;-56
2022/12/06 13:24:57;;;;;;;33.40;19.75;;;8.20;66.30;;;;;;5003699;28;20054;-57
2022/12/06 13:27:26;;;;;;;37.15;20.33;;;8.20;66.20;;;;;;5004504;28;20063;-55
2022/12/06 13:29:59;;;;;;;31.02;18.98;;;8.20;66.00;;;;;;4993982;28;20058;-53
2022/12/06 13:32:31;;;;;;;38.22;20.95;;;8.20;65.90;;;;;;5000277;28;20061;-53